^^
Station Historical Data
Daily Summary for March 1, 2019 Units:  Both    English   Metric
« Previous Day
Next Day »
Daily Weekly Monthly Yearly Custom
  High: Low: Average:
Temperature: 17.3 °F /  -8.2 °C 2.1 °F /  -16.6 °C 10.1 °F /  -12.2 °C
Dew Point: 11.2 °F /  -11.6 °C -2.7 °F /  -19.3 °C 5.9 °F /  -14.5 °C
Humidity: 89% 72% 83%
Wind Speed: 12.0mph /  19.3km/h - 4.2mph /  6.8km/h
Wind Gust: 14.0mph /  22.5km/h - -
Wind- - WSW
Pressure: 30.42 in /  1030 hPa 30.04 in /  1017.2 hPa -
Precipitation: 0.00 in /  0 mm    
Historical Graphs
 
 
Tabular Data for March 1, 2019
Time Temperature Dew Point Pressure Wind Wind Speed Wind Gust Humidity Rainfall Rate (Hourly) solar Conditions
00:04 10.5 °F /  -11.9 °C 6.6 °F /  -14.1 °C 30.05in /  1017.5hPa SE 3.0mph /  4.8km/h 4.0mph /  6.4km/h 84% 0.00in /  0mm 0.00 W/m2
00:09 10.4 °F /  -12 °C 6.5 °F /  -14.2 °C 30.05in /  1017.5hPa ESE 2.0mph /  3.2km/h 4.0mph /  6.4km/h 84% 0.00in /  0mm 0.00 W/m2
00:14 10.5 °F /  -11.9 °C 6.6 °F /  -14.1 °C 30.05in /  1017.5hPa ESE 1.0mph /  1.6km/h 3.0mph /  4.8km/h 84% 0.00in /  0mm 0.00 W/m2
00:19 10.4 °F /  -12 °C 6.5 °F /  -14.2 °C 30.05in /  1017.5hPa ESE 1.0mph /  1.6km/h 3.0mph /  4.8km/h 84% 0.00in /  0mm 0.00 W/m2
00:24 10.2 °F /  -12.1 °C 6.3 °F /  -14.3 °C 30.06in /  1017.8hPa ESE 2.0mph /  3.2km/h 3.0mph /  4.8km/h 84% 0.00in /  0mm 0.00 W/m2
00:29 10.1 °F /  -12.2 °C 6.2 °F /  -14.3 °C 30.05in /  1017.5hPa ESE 3.0mph /  4.8km/h 3.0mph /  4.8km/h 84% 0.00in /  0mm 0.00 W/m2
00:34 10.1 °F /  -12.2 °C 6.2 °F /  -14.3 °C 30.05in /  1017.5hPa ENE 4.0mph /  6.4km/h 5.0mph /  8km/h 84% 0.00in /  0mm 0.00 W/m2
00:39 10.0 °F /  -12.2 °C 6.1 °F /  -14.4 °C 30.05in /  1017.5hPa ENE 3.0mph /  4.8km/h 5.0mph /  8km/h 84% 0.00in /  0mm 0.00 W/m2
00:44 9.9 °F /  -12.3 °C 6.0 °F /  -14.4 °C 30.05in /  1017.5hPa ENE 3.0mph /  4.8km/h 4.0mph /  6.4km/h 84% 0.00in /  0mm 0.00 W/m2
00:49 9.8 °F /  -12.3 °C 5.9 °F /  -14.5 °C 30.04in /  1017.2hPa ENE 2.0mph /  3.2km/h 4.0mph /  6.4km/h 84% 0.00in /  0mm 0.00 W/m2
00:54 9.9 °F /  -12.3 °C 6.3 °F /  -14.3 °C 30.04in /  1017.2hPa ENE 3.0mph /  4.8km/h 4.0mph /  6.4km/h 85% 0.00in /  0mm 0.00 W/m2
00:59 10.2 °F /  -12.1 °C 6.6 °F /  -14.1 °C 30.04in /  1017.2hPa ENE 4.0mph /  6.4km/h 4.0mph /  6.4km/h 85% 0.00in /  0mm 0.00 W/m2
01:04 10.4 °F /  -12 °C 6.8 °F /  -14 °C 30.04in /  1017.2hPa ENE 3.0mph /  4.8km/h 4.0mph /  6.4km/h 85% 0.00in /  0mm 0.00 W/m2
01:09 10.5 °F /  -11.9 °C 6.6 °F /  -14.1 °C 30.05in /  1017.5hPa ENE 1.0mph /  1.6km/h 4.0mph /  6.4km/h 84% 0.00in /  0mm 0.00 W/m2
01:14 10.6 °F /  -11.9 °C 6.7 °F /  -14.1 °C 30.04in /  1017.2hPa ENE 1.0mph /  1.6km/h 4.0mph /  6.4km/h 84% 0.00in /  0mm 0.00 W/m2
01:19 10.8 °F /  -11.8 °C 6.9 °F /  -13.9 °C 30.05in /  1017.5hPa ENE 2.0mph /  3.2km/h 2.0mph /  3.2km/h 84% 0.00in /  0mm 0.00 W/m2
01:24 10.9 °F /  -11.7 °C 7.0 °F /  -13.9 °C 30.05in /  1017.5hPa ENE 2.0mph /  3.2km/h 3.0mph /  4.8km/h 84% 0.00in /  0mm 0.00 W/m2
01:29 10.9 °F /  -11.7 °C 7.0 °F /  -13.9 °C 30.05in /  1017.5hPa ENE 1.0mph /  1.6km/h 3.0mph /  4.8km/h 84% 0.00in /  0mm 0.00 W/m2
01:34 11.0 °F /  -11.7 °C 7.1 °F /  -13.8 °C 30.05in /  1017.5hPa ENE 1.0mph /  1.6km/h 2.0mph /  3.2km/h 84% 0.00in /  0mm 0.00 W/m2
01:39 11.0 °F /  -11.7 °C 7.1 °F /  -13.8 °C 30.05in /  1017.5hPa ENE 1.0mph /  1.6km/h 2.0mph /  3.2km/h 84% 0.00in /  0mm 0.00 W/m2
01:44 11.1 °F /  -11.6 °C 7.2 °F /  -13.8 °C 30.05in /  1017.5hPa ENE 2.0mph /  3.2km/h 2.0mph /  3.2km/h 84% 0.00in /  0mm 0.00 W/m2
01:49 11.2 °F /  -11.6 °C 7.3 °F /  -13.7 °C 30.05in /  1017.5hPa ENE 1.0mph /  1.6km/h 2.0mph /  3.2km/h 84% 0.00in /  0mm 0.00 W/m2
01:54 11.2 °F /  -11.6 °C 7.3 °F /  -13.7 °C 30.05in /  1017.5hPa SE 3.0mph /  4.8km/h 3.0mph /  4.8km/h 84% 0.00in /  0mm 0.00 W/m2
01:59 10.9 °F /  -11.7 °C 7.0 °F /  -13.9 °C 30.05in /  1017.5hPa SE 4.0mph /  6.4km/h 5.0mph /  8km/h 84% 0.00in /  0mm 0.00 W/m2
02:04 10.3 °F /  -12.1 °C 6.2 °F /  -14.3 °C 30.05in /  1017.5hPa SE 2.0mph /  3.2km/h 5.0mph /  8km/h 83% 0.00in /  0mm 0.00 W/m2
02:09 9.8 °F /  -12.3 °C 5.9 °F /  -14.5 °C 30.05in /  1017.5hPa ESE 3.0mph /  4.8km/h 4.0mph /  6.4km/h 84% 0.00in /  0mm 0.00 W/m2
02:14 9.4 °F /  -12.6 °C 5.5 °F /  -14.7 °C 30.05in /  1017.5hPa East 2.0mph /  3.2km/h 6.0mph /  9.7km/h 84% 0.00in /  0mm 0.00 W/m2
02:19 9.3 °F /  -12.6 °C 5.4 °F /  -14.8 °C 30.05in /  1017.5hPa ESE 3.0mph /  4.8km/h 6.0mph /  9.7km/h 84% 0.00in /  0mm 0.00 W/m2
02:24 9.3 °F /  -12.6 °C 5.7 °F /  -14.6 °C 30.05in /  1017.5hPa SE 3.0mph /  4.8km/h 5.0mph /  8km/h 85% 0.00in /  0mm 0.00 W/m2
02:29 9.4 °F /  -12.6 °C 5.8 °F /  -14.6 °C 30.05in /  1017.5hPa ESE 1.0mph /  1.6km/h 5.0mph /  8km/h 85% 0.00in /  0mm 0.00 W/m2
02:34 9.5 °F /  -12.5 °C 6.2 °F /  -14.3 °C 30.05in /  1017.5hPa ESE 1.0mph /  1.6km/h 4.0mph /  6.4km/h 86% 0.00in /  0mm 0.00 W/m2
02:39 9.6 °F /  -12.4 °C 6.0 °F /  -14.4 °C 30.05in /  1017.5hPa ENE 2.0mph /  3.2km/h 3.0mph /  4.8km/h 85% 0.00in /  0mm 0.00 W/m2
02:44 9.7 °F /  -12.4 °C 6.4 °F /  -14.2 °C 30.05in /  1017.5hPa ENE 3.0mph /  4.8km/h 4.0mph /  6.4km/h 86% 0.00in /  0mm 0.00 W/m2
02:49 9.7 °F /  -12.4 °C 6.1 °F /  -14.4 °C 30.05in /  1017.5hPa Calm   4.0mph /  6.4km/h 85% 0.00in /  0mm 0.00 W/m2
02:54 9.7 °F /  -12.4 °C 6.1 °F /  -14.4 °C 30.05in /  1017.5hPa Calm   3.0mph /  4.8km/h 85% 0.00in /  0mm 0.00 W/m2
02:59 9.7 °F /  -12.4 °C 6.1 °F /  -14.4 °C 30.05in /  1017.5hPa Calm   2.0mph /  3.2km/h 85% 0.00in /  0mm 0.00 W/m2
03:04 9.7 °F /  -12.4 °C 6.4 °F /  -14.2 °C 30.05in /  1017.5hPa ESE 2.0mph /  3.2km/h 2.0mph /  3.2km/h 86% 0.00in /  0mm 0.00 W/m2
03:09 9.6 °F /  -12.4 °C 6.3 °F /  -14.3 °C 30.05in /  1017.5hPa ESE 2.0mph /  3.2km/h 3.0mph /  4.8km/h 86% 0.00in /  0mm 0.00 W/m2
03:14 9.6 °F /  -12.4 °C 6.3 °F /  -14.3 °C 30.05in /  1017.5hPa SE 3.0mph /  4.8km/h 3.0mph /  4.8km/h 86% 0.00in /  0mm 0.00 W/m2
03:19 9.7 °F /  -12.4 °C 6.4 °F /  -14.2 °C 30.05in /  1017.5hPa SE 3.0mph /  4.8km/h 4.0mph /  6.4km/h 86% 0.00in /  0mm 0.00 W/m2
03:24 9.8 °F /  -12.3 °C 6.5 °F /  -14.2 °C 30.04in /  1017.2hPa ESE 3.0mph /  4.8km/h 4.0mph /  6.4km/h 86% 0.00in /  0mm 0.00 W/m2
03:29 9.8 °F /  -12.3 °C 6.5 °F /  -14.2 °C 30.04in /  1017.2hPa ESE 2.0mph /  3.2km/h 4.0mph /  6.4km/h 86% 0.00in /  0mm 0.00 W/m2
03:34 9.9 °F /  -12.3 °C 6.6 °F /  -14.1 °C 30.04in /  1017.2hPa ESE 2.0mph /  3.2km/h 4.0mph /  6.4km/h 86% 0.00in /  0mm 0.00 W/m2
03:39 10.0 °F /  -12.2 °C 6.6 °F /  -14.1 °C 30.04in /  1017.2hPa ESE 3.0mph /  4.8km/h 5.0mph /  8km/h 86% 0.00in /  0mm 0.00 W/m2
03:44 9.9 °F /  -12.3 °C 6.6 °F /  -14.1 °C 30.04in /  1017.2hPa SE 3.0mph /  4.8km/h 5.0mph /  8km/h 86% 0.00in /  0mm 0.00 W/m2
03:49 9.9 °F /  -12.3 °C 6.6 °F /  -14.1 °C 30.04in /  1017.2hPa ESE 2.0mph /  3.2km/h 4.0mph /  6.4km/h 86% 0.00in /  0mm 0.00 W/m2
03:54 9.9 °F /  -12.3 °C 6.6 °F /  -14.1 °C 30.04in /  1017.2hPa ESE 1.0mph /  1.6km/h 4.0mph /  6.4km/h 86% 0.00in /  0mm 0.00 W/m2
03:59 10.0 °F /  -12.2 °C 6.6 °F /  -14.1 °C 30.04in /  1017.2hPa Calm   3.0mph /  4.8km/h 86% 0.00in /  0mm 0.00 W/m2
04:04 10.0 °F /  -12.2 °C 6.6 °F /  -14.1 °C 30.04in /  1017.2hPa ESE 1.0mph /  1.6km/h 2.0mph /  3.2km/h 86% 0.00in /  0mm 0.00 W/m2
04:09 10.0 °F /  -12.2 °C 6.6 °F /  -14.1 °C 30.04in /  1017.2hPa Calm   2.0mph /  3.2km/h 86% 0.00in /  0mm 0.00 W/m2
04:14 10.1 °F /  -12.2 °C 6.7 °F /  -14.1 °C 30.04in /  1017.2hPa Calm   2.0mph /  3.2km/h 86% 0.00in /  0mm 0.00 W/m2
04:19 10.1 °F /  -12.2 °C 6.7 °F /  -14.1 °C 30.04in /  1017.2hPa ESE 1.0mph /  1.6km/h 1.0mph /  1.6km/h 86% 0.00in /  0mm 0.00 W/m2
04:24 10.1 °F /  -12.2 °C 6.7 °F /  -14.1 °C 30.04in /  1017.2hPa Calm   1.0mph /  1.6km/h 86% 0.00in /  0mm 0.00 W/m2
04:29 10.1 °F /  -12.2 °C 6.7 °F /  -14.1 °C 30.04in /  1017.2hPa ESE 1.0mph /  1.6km/h 1.0mph /  1.6km/h 86% 0.00in /  0mm 0.00 W/m2
04:34 10.2 °F /  -12.1 °C 7.1 °F /  -13.8 °C 30.05in /  1017.5hPa ESE 1.0mph /  1.6km/h 2.0mph /  3.2km/h 87% 0.00in /  0mm 0.00 W/m2
04:39 10.3 °F /  -12.1 °C 7.2 °F /  -13.8 °C 30.05in /  1017.5hPa West 2.0mph /  3.2km/h 3.0mph /  4.8km/h 87% 0.00in /  0mm 0.00 W/m2
04:44 10.2 °F /  -12.1 °C 7.1 °F /  -13.8 °C 30.05in /  1017.5hPa West 1.0mph /  1.6km/h 3.0mph /  4.8km/h 87% 0.00in /  0mm 0.00 W/m2
04:49 10.0 °F /  -12.2 °C 6.9 °F /  -13.9 °C 30.05in /  1017.5hPa Calm   3.0mph /  4.8km/h 87% 0.00in /  0mm 0.00 W/m2
04:54 9.9 °F /  -12.3 °C 6.8 °F /  -14 °C 30.05in /  1017.5hPa Calm   2.0mph /  3.2km/h 87% 0.00in /  0mm 0.00 W/m2
04:59 9.9 °F /  -12.3 °C 6.8 °F /  -14 °C 30.05in /  1017.5hPa Calm     87% 0.00in /  0mm 0.00 W/m2
05:04 9.9 °F /  -12.3 °C 6.8 °F /  -14 °C 30.06in /  1017.8hPa West 1.0mph /  1.6km/h 2.0mph /  3.2km/h 87% 0.00in /  0mm 0.00 W/m2
05:09 9.8 °F /  -12.3 °C 6.7 °F /  -14.1 °C 30.06in /  1017.8hPa West 1.0mph /  1.6km/h 2.0mph /  3.2km/h 87% 0.00in /  0mm 0.00 W/m2
05:14 9.8 °F /  -12.3 °C 7.0 °F /  -13.9 °C 30.05in /  1017.5hPa Calm   2.0mph /  3.2km/h 88% 0.00in /  0mm 0.00 W/m2
05:19 9.9 °F /  -12.3 °C 7.1 °F /  -13.8 °C 30.05in /  1017.5hPa Calm   2.0mph /  3.2km/h 88% 0.00in /  0mm 0.00 W/m2
05:24 10.0 °F /  -12.2 °C 7.2 °F /  -13.8 °C 30.05in /  1017.5hPa Calm   2.0mph /  3.2km/h 88% 0.00in /  0mm 0.00 W/m2
05:29 10.1 °F /  -12.2 °C 7.3 °F /  -13.7 °C 30.06in /  1017.8hPa West 1.0mph /  1.6km/h 2.0mph /  3.2km/h 88% 0.00in /  0mm 0.00 W/m2
05:34 10.2 °F /  -12.1 °C 7.4 °F /  -13.7 °C 30.06in /  1017.8hPa West 2.0mph /  3.2km/h 2.0mph /  3.2km/h 88% 0.00in /  0mm 0.00 W/m2
05:39 10.3 °F /  -12.1 °C 7.5 °F /  -13.6 °C 30.07in /  1018.2hPa NW 2.0mph /  3.2km/h 3.0mph /  4.8km/h 88% 0.00in /  0mm 0.00 W/m2
05:44 10.3 °F /  -12.1 °C 7.5 °F /  -13.6 °C 30.07in /  1018.2hPa NW 2.0mph /  3.2km/h 3.0mph /  4.8km/h 88% 0.00in /  0mm 0.00 W/m2
05:49 10.2 °F /  -12.1 °C 7.4 °F /  -13.7 °C 30.07in /  1018.2hPa NW 1.0mph /  1.6km/h 3.0mph /  4.8km/h 88% 0.00in /  0mm 0.00 W/m2
05:54 10.1 °F /  -12.2 °C 7.3 °F /  -13.7 °C 30.07in /  1018.2hPa NW 2.0mph /  3.2km/h 3.0mph /  4.8km/h 88% 0.00in /  0mm 0.00 W/m2
05:59 10.1 °F /  -12.2 °C 7.3 °F /  -13.7 °C 30.07in /  1018.2hPa NW 2.0mph /  3.2km/h 4.0mph /  6.4km/h 88% 0.00in /  0mm 0.00 W/m2
06:04 10.1 °F /  -12.2 °C 7.3 °F /  -13.7 °C 30.07in /  1018.2hPa NW 2.0mph /  3.2km/h 4.0mph /  6.4km/h 88% 0.00in /  0mm 0.00 W/m2
06:09 10.1 °F /  -12.2 °C 7.3 °F /  -13.7 °C 30.07in /  1018.2hPa NW 2.0mph /  3.2km/h 3.0mph /  4.8km/h 88% 0.00in /  0mm 0.00 W/m2
06:14 10.3 °F /  -12.1 °C 7.7 °F /  -13.5 °C 30.08in /  1018.5hPa NW 2.0mph /  3.2km/h 3.0mph /  4.8km/h 89% 0.00in /  0mm 0.00 W/m2
06:19 10.3 °F /  -12.1 °C 7.5 °F /  -13.6 °C 30.07in /  1018.2hPa NW 2.0mph /  3.2km/h 3.0mph /  4.8km/h 88% 0.00in /  0mm 0.00 W/m2
06:24 10.4 °F /  -12 °C 7.8 °F /  -13.4 °C 30.07in /  1018.2hPa NNW 1.0mph /  1.6km/h 3.0mph /  4.8km/h 89% 0.00in /  0mm 0.00 W/m2
06:29 10.5 °F /  -11.9 °C 7.9 °F /  -13.4 °C 30.07in /  1018.2hPa North 2.0mph /  3.2km/h 3.0mph /  4.8km/h 89% 0.00in /  0mm 0.00 W/m2
06:34 10.7 °F /  -11.8 °C 8.1 °F /  -13.3 °C 30.08in /  1018.5hPa North 2.0mph /  3.2km/h 3.0mph /  4.8km/h 89% 0.00in /  0mm 0.00 W/m2
06:39 10.8 °F /  -11.8 °C 8.2 °F /  -13.2 °C 30.08in /  1018.5hPa North 2.0mph /  3.2km/h 3.0mph /  4.8km/h 89% 0.00in /  0mm 0.00 W/m2
06:44 10.8 °F /  -11.8 °C 8.2 °F /  -13.2 °C 30.08in /  1018.5hPa North 2.0mph /  3.2km/h 2.0mph /  3.2km/h 89% 0.00in /  0mm 0.00 W/m2
06:49 10.8 °F /  -11.8 °C 8.2 °F /  -13.2 °C 30.08in /  1018.5hPa Calm   2.0mph /  3.2km/h 89% 0.00in /  0mm 0.00 W/m2
06:54 10.8 °F /  -11.8 °C 8.2 °F /  -13.2 °C 30.09in /  1018.8hPa North 1.0mph /  1.6km/h 2.0mph /  3.2km/h 89% 0.00in /  0mm 0.00 W/m2
06:59 10.8 °F /  -11.8 °C 8.2 °F /  -13.2 °C 30.09in /  1018.8hPa North 1.0mph /  1.6km/h 2.0mph /  3.2km/h 89% 0.00in /  0mm 0.00 W/m2
07:04 10.8 °F /  -11.8 °C 8.2 °F /  -13.2 °C 30.09in /  1018.8hPa North 2.0mph /  3.2km/h 2.0mph /  3.2km/h 89% 0.00in /  0mm 0.00 W/m2
07:09 10.8 °F /  -11.8 °C 8.2 °F /  -13.2 °C 30.09in /  1018.8hPa Calm   2.0mph /  3.2km/h 89% 0.00in /  0mm 0.00 W/m2
07:14 10.8 °F /  -11.8 °C 8.2 °F /  -13.2 °C 30.09in /  1018.8hPa Calm   2.0mph /  3.2km/h 89% 0.00in /  0mm 0.00 W/m2
07:19 10.8 °F /  -11.8 °C 8.2 °F /  -13.2 °C 30.10in /  1019.2hPa Calm   2.0mph /  3.2km/h 89% 0.00in /  0mm 0.00 W/m2
07:24 10.9 °F /  -11.7 °C 8.3 °F /  -13.2 °C 30.10in /  1019.2hPa Calm     89% 0.00in /  0mm 0.00 W/m2
07:29 10.9 °F /  -11.7 °C 8.3 °F /  -13.2 °C 30.10in /  1019.2hPa Calm     89% 0.00in /  0mm 0.00 W/m2
07:34 11.0 °F /  -11.7 °C 8.4 °F /  -13.1 °C 30.11in /  1019.5hPa Calm     89% 0.00in /  0mm 5.00 W/m2
07:39 11.1 °F /  -11.6 °C 8.5 °F /  -13.1 °C 30.11in /  1019.5hPa Calm     89% 0.00in /  0mm 7.00 W/m2
07:44 11.1 °F /  -11.6 °C 8.5 °F /  -13.1 °C 30.11in /  1019.5hPa North 2.0mph /  3.2km/h 3.0mph /  4.8km/h 89% 0.00in /  0mm 7.00 W/m2
07:49 11.1 °F /  -11.6 °C 8.5 °F /  -13.1 °C 30.11in /  1019.5hPa North 2.0mph /  3.2km/h 3.0mph /  4.8km/h 89% 0.00in /  0mm 9.00 W/m2
07:54 11.2 °F /  -11.6 °C 8.6 °F /  -13 °C 30.11in /  1019.5hPa North 1.0mph /  1.6km/h 3.0mph /  4.8km/h 89% 0.00in /  0mm 12.00 W/m2
07:59 11.2 °F /  -11.6 °C 8.6 °F /  -13 °C 30.11in /  1019.5hPa North 1.0mph /  1.6km/h 3.0mph /  4.8km/h 89% 0.00in /  0mm 14.00 W/m2
08:04 11.3 °F /  -11.5 °C 8.7 °F /  -12.9 °C 30.12in /  1019.9hPa North 2.0mph /  3.2km/h 2.0mph /  3.2km/h 89% 0.00in /  0mm 19.00 W/m2
08:09 11.4 °F /  -11.4 °C 8.8 °F /  -12.9 °C 30.12in /  1019.9hPa North 2.0mph /  3.2km/h 3.0mph /  4.8km/h 89% 0.00in /  0mm 23.00 W/m2
08:14 11.4 °F /  -11.4 °C 8.8 °F /  -12.9 °C 30.12in /  1019.9hPa North 2.0mph /  3.2km/h 3.0mph /  4.8km/h 89% 0.00in /  0mm 25.00 W/m2
08:19 11.5 °F /  -11.4 °C 8.9 °F /  -12.8 °C 30.12in /  1019.9hPa North 2.0mph /  3.2km/h 3.0mph /  4.8km/h 89% 0.00in /  0mm 26.00 W/m2
08:24 11.6 °F /  -11.3 °C 9.0 °F /  -12.8 °C 30.12in /  1019.9hPa NW 3.0mph /  4.8km/h 4.0mph /  6.4km/h 89% 0.00in /  0mm 35.00 W/m2
08:29 11.3 °F /  -11.5 °C 8.4 °F /  -13.1 °C 30.12in /  1019.9hPa NW 4.0mph /  6.4km/h 5.0mph /  8km/h 88% 0.00in /  0mm 42.00 W/m2
08:34 10.9 °F /  -11.7 °C 8.0 °F /  -13.3 °C 30.12in /  1019.9hPa NW 5.0mph /  8km/h 5.0mph /  8km/h 88% 0.00in /  0mm 49.00 W/m2
08:39 10.9 °F /  -11.7 °C 8.0 °F /  -13.3 °C 30.12in /  1019.9hPa NW 2.0mph /  3.2km/h 5.0mph /  8km/h 88% 0.00in /  0mm 54.00 W/m2
08:44 11.0 °F /  -11.7 °C 8.1 °F /  -13.3 °C 30.12in /  1019.9hPa North 2.0mph /  3.2km/h 5.0mph /  8km/h 88% 0.00in /  0mm 60.00 W/m2
08:49 11.5 °F /  -11.4 °C 8.9 °F /  -12.8 °C 30.13in /  1020.2hPa North 5.0mph /  8km/h 5.0mph /  8km/h 89% 0.00in /  0mm 63.00 W/m2
08:54 11.9 °F /  -11.2 °C 9.3 °F /  -12.6 °C 30.13in /  1020.2hPa North 3.0mph /  4.8km/h 5.0mph /  8km/h 89% 0.00in /  0mm 67.00 W/m2
08:59 12.2 °F /  -11 °C 9.3 °F /  -12.6 °C 30.13in /  1020.2hPa North 2.0mph /  3.2km/h 5.0mph /  8km/h 88% 0.00in /  0mm 69.00 W/m2
09:04 12.1 °F /  -11.1 °C 9.0 °F /  -12.8 °C 30.13in /  1020.2hPa North 3.0mph /  4.8km/h 4.0mph /  6.4km/h 87% 0.00in /  0mm 62.00 W/m2
09:09 11.7 °F /  -11.3 °C 8.6 °F /  -13 °C 30.14in /  1020.5hPa NW 4.0mph /  6.4km/h 5.0mph /  8km/h 87% 0.00in /  0mm 60.00 W/m2
09:14 11.5 °F /  -11.4 °C 8.4 °F /  -13.1 °C 30.14in /  1020.5hPa NW 3.0mph /  4.8km/h 5.0mph /  8km/h 87% 0.00in /  0mm 69.00 W/m2
09:19 11.5 °F /  -11.4 °C 8.4 °F /  -13.1 °C 30.14in /  1020.5hPa NW 4.0mph /  6.4km/h 5.0mph /  8km/h 87% 0.00in /  0mm 102.00 W/m2
09:24 11.8 °F /  -11.2 °C 8.7 °F /  -12.9 °C 30.15in /  1020.9hPa NW 4.0mph /  6.4km/h 5.0mph /  8km/h 87% 0.00in /  0mm 127.00 W/m2
09:29 12.1 °F /  -11.1 °C 9.0 °F /  -12.8 °C 30.15in /  1020.9hPa NW 4.0mph /  6.4km/h 7.0mph /  11.3km/h 87% 0.00in /  0mm 123.00 W/m2
09:34 12.0 °F /  -11.1 °C 8.9 °F /  -12.8 °C 30.15in /  1020.9hPa NW 4.0mph /  6.4km/h 7.0mph /  11.3km/h 87% 0.00in /  0mm 105.00 W/m2
09:39 11.8 °F /  -11.2 °C 8.7 °F /  -12.9 °C 30.15in /  1020.9hPa NW 2.0mph /  3.2km/h 7.0mph /  11.3km/h 87% 0.00in /  0mm 95.00 W/m2
09:44 11.8 °F /  -11.2 °C 8.7 °F /  -12.9 °C 30.16in /  1021.2hPa NNW 4.0mph /  6.4km/h 6.0mph /  9.7km/h 87% 0.00in /  0mm 90.00 W/m2
09:49 12.1 °F /  -11.1 °C 9.0 °F /  -12.8 °C 30.16in /  1021.2hPa NNW 5.0mph /  8km/h 6.0mph /  9.7km/h 87% 0.00in /  0mm 90.00 W/m2
09:54 12.2 °F /  -11 °C 9.1 °F /  -12.7 °C 30.16in /  1021.2hPa NNW 6.0mph /  9.7km/h 7.0mph /  11.3km/h 87% 0.00in /  0mm 88.00 W/m2
09:59 12.3 °F /  -10.9 °C 9.2 °F /  -12.7 °C 30.16in /  1021.2hPa NNW 5.0mph /  8km/h 7.0mph /  11.3km/h 87% 0.00in /  0mm 90.00 W/m2
10:04 12.5 °F /  -10.8 °C 9.4 °F /  -12.6 °C 30.16in /  1021.2hPa NNW 5.0mph /  8km/h 7.0mph /  11.3km/h 87% 0.00in /  0mm 95.00 W/m2
10:09 12.7 °F /  -10.7 °C 9.6 °F /  -12.4 °C 30.16in /  1021.2hPa NNW 4.0mph /  6.4km/h 6.0mph /  9.7km/h 87% 0.00in /  0mm 105.00 W/m2
10:14 12.7 °F /  -10.7 °C 9.6 °F /  -12.4 °C 30.16in /  1021.2hPa NNW 6.0mph /  9.7km/h 8.0mph /  12.9km/h 87% 0.00in /  0mm 114.00 W/m2
10:19 12.8 °F /  -10.7 °C 9.7 °F /  -12.4 °C 30.17in /  1021.6hPa NNW 6.0mph /  9.7km/h 9.0mph /  14.5km/h 87% 0.00in /  0mm 125.00 W/m2
10:24 12.5 °F /  -10.8 °C 9.1 °F /  -12.7 °C 30.17in /  1021.6hPa WNW 7.0mph /  11.3km/h 9.0mph /  14.5km/h 86% 0.00in /  0mm 135.00 W/m2
10:29 12.0 °F /  -11.1 °C 8.6 °F /  -13 °C 30.17in /  1021.6hPa NNW 5.0mph /  8km/h 9.0mph /  14.5km/h 86% 0.00in /  0mm 149.00 W/m2
10:34 12.1 °F /  -11.1 °C 9.0 °F /  -12.8 °C 30.17in /  1021.6hPa NNW 6.0mph /  9.7km/h 9.0mph /  14.5km/h 87% 0.00in /  0mm 148.00 W/m2
10:39 12.3 °F /  -10.9 °C 9.2 °F /  -12.7 °C 30.17in /  1021.6hPa NW 5.0mph /  8km/h 9.0mph /  14.5km/h 87% 0.00in /  0mm 156.00 W/m2
10:44 12.6 °F /  -10.8 °C 9.5 °F /  -12.5 °C 30.18in /  1021.9hPa NW 8.0mph /  12.9km/h 10.0mph /  16.1km/h 87% 0.00in /  0mm 160.00 W/m2
10:49 12.8 °F /  -10.7 °C 9.7 °F /  -12.4 °C 30.18in /  1021.9hPa NNW 8.0mph /  12.9km/h 10.0mph /  16.1km/h 87% 0.00in /  0mm 169.00 W/m2
10:54 13.3 °F /  -10.4 °C 10.2 °F /  -12.1 °C 30.18in /  1021.9hPa North 9.0mph /  14.5km/h 11.0mph /  17.7km/h 87% 0.00in /  0mm 163.00 W/m2
10:59 14.0 °F /  -10 °C 10.8 °F /  -11.8 °C 30.18in /  1021.9hPa North 6.0mph /  9.7km/h 11.0mph /  17.7km/h 87% 0.00in /  0mm 146.00 W/m2
11:04 14.3 °F /  -9.8 °C 10.9 °F /  -11.7 °C 30.18in /  1021.9hPa North 7.0mph /  11.3km/h 9.0mph /  14.5km/h 86% 0.00in /  0mm 135.00 W/m2
11:09 14.6 °F /  -9.7 °C 11.2 °F /  -11.6 °C 30.19in /  1022.2hPa North 7.0mph /  11.3km/h 9.0mph /  14.5km/h 86% 0.00in /  0mm 137.00 W/m2
11:14 14.6 °F /  -9.7 °C 10.6 °F /  -11.9 °C 30.19in /  1022.2hPa North 9.0mph /  14.5km/h 9.0mph /  14.5km/h 84% 0.00in /  0mm 142.00 W/m2
11:19 14.5 °F /  -9.7 °C 10.5 °F /  -11.9 °C 30.20in /  1022.6hPa North 9.0mph /  14.5km/h 12.0mph /  19.3km/h 84% 0.00in /  0mm 151.00 W/m2
11:24 14.3 °F /  -9.8 °C 10.1 °F /  -12.2 °C 30.20in /  1022.6hPa NNW 9.0mph /  14.5km/h 13.0mph /  20.9km/h 83% 0.00in /  0mm 165.00 W/m2
11:29 14.4 °F /  -9.8 °C 10.2 °F /  -12.1 °C 30.20in /  1022.6hPa NNW 9.0mph /  14.5km/h 13.0mph /  20.9km/h 83% 0.00in /  0mm 174.00 W/m2
11:34 14.6 °F /  -9.7 °C 10.4 °F /  -12 °C 30.20in /  1022.6hPa NNW 7.0mph /  11.3km/h 11.0mph /  17.7km/h 83% 0.00in /  0mm 167.00 W/m2
11:39 14.3 °F /  -9.8 °C 9.8 °F /  -12.3 °C 30.20in /  1022.6hPa NNW 12.0mph /  19.3km/h 12.0mph /  19.3km/h 82% 0.00in /  0mm 158.00 W/m2
11:44 13.4 °F /  -10.3 °C 8.9 °F /  -12.8 °C 30.20in /  1022.6hPa NNW 8.0mph /  12.9km/h 12.0mph /  19.3km/h 82% 0.00in /  0mm 158.00 W/m2
11:49 13.2 °F /  -10.4 °C 9.3 °F /  -12.6 °C 30.21in /  1022.9hPa NNW 8.0mph /  12.9km/h 13.0mph /  20.9km/h 84% 0.00in /  0mm 165.00 W/m2
11:54 13.5 °F /  -10.3 °C 9.6 °F /  -12.4 °C 30.21in /  1022.9hPa NNW 7.0mph /  11.3km/h 13.0mph /  20.9km/h 84% 0.00in /  0mm 176.00 W/m2
11:59 13.4 °F /  -10.3 °C 9.2 °F /  -12.7 °C 30.21in /  1022.9hPa NNW 11.0mph /  17.7km/h 12.0mph /  19.3km/h 83% 0.00in /  0mm 188.00 W/m2
12:04 13.3 °F /  -10.4 °C 9.1 °F /  -12.7 °C 30.21in /  1022.9hPa NNW 10.0mph /  16.1km/h 12.0mph /  19.3km/h 83% 0.00in /  0mm 181.00 W/m2
12:09 13.8 °F /  -10.1 °C 9.9 °F /  -12.3 °C 30.22in /  1023.2hPa NNW 8.0mph /  12.9km/h 12.0mph /  19.3km/h 84% 0.00in /  0mm 190.00 W/m2
12:14 13.6 °F /  -10.2 °C 9.1 °F /  -12.7 °C 30.21in /  1022.9hPa NNW 8.0mph /  12.9km/h 12.0mph /  19.3km/h 82% 0.00in /  0mm 192.00 W/m2
12:19 13.6 °F /  -10.2 °C 9.1 °F /  -12.7 °C 30.22in /  1023.2hPa North 10.0mph /  16.1km/h 11.0mph /  17.7km/h 82% 0.00in /  0mm 171.00 W/m2
12:24 13.8 °F /  -10.1 °C 9.3 °F /  -12.6 °C 30.22in /  1023.2hPa North 10.0mph /  16.1km/h 11.0mph /  17.7km/h 82% 0.00in /  0mm 167.00 W/m2
12:29 14.2 °F /  -9.9 °C 9.7 °F /  -12.4 °C 30.22in /  1023.2hPa NNW 5.0mph /  8km/h 11.0mph /  17.7km/h 82% 0.00in /  0mm 181.00 W/m2
12:34 14.5 °F /  -9.7 °C 9.7 °F /  -12.4 °C 30.22in /  1023.2hPa North 7.0mph /  11.3km/h 10.0mph /  16.1km/h 81% 0.00in /  0mm 211.00 W/m2
12:39 15.4 °F /  -9.2 °C 10.6 °F /  -11.9 °C 30.22in /  1023.2hPa North 6.0mph /  9.7km/h 8.0mph /  12.9km/h 81% 0.00in /  0mm 253.00 W/m2
12:44 16.3 °F /  -8.7 °C 11.2 °F /  -11.6 °C 30.22in /  1023.2hPa North 7.0mph /  11.3km/h 8.0mph /  12.9km/h 80% 0.00in /  0mm 290.00 W/m2
12:49 16.8 °F /  -8.4 °C 11.1 °F /  -11.6 °C 30.22in /  1023.2hPa North 6.0mph /  9.7km/h 8.0mph /  12.9km/h 78% 0.00in /  0mm 339.00 W/m2
12:54 17.0 °F /  -8.3 °C 11.0 °F /  -11.7 °C 30.22in /  1023.2hPa NNW 5.0mph /  8km/h 8.0mph /  12.9km/h 77% 0.00in /  0mm 373.00 W/m2
12:59 17.3 °F /  -8.2 °C 11.0 °F /  -11.7 °C 30.22in /  1023.2hPa North 8.0mph /  12.9km/h 9.0mph /  14.5km/h 76% 0.00in /  0mm 480.00 W/m2
13:04 17.0 °F /  -8.3 °C 10.1 °F /  -12.2 °C 30.22in /  1023.2hPa North 8.0mph /  12.9km/h 9.0mph /  14.5km/h 74% 0.00in /  0mm 506.00 W/m2
13:09 16.2 °F /  -8.8 °C 9.7 °F /  -12.4 °C 30.23in /  1023.6hPa NNW 7.0mph /  11.3km/h 9.0mph /  14.5km/h 75% 0.00in /  0mm 517.00 W/m2
13:14 14.6 °F /  -9.7 °C 8.1 °F /  -13.3 °C 30.23in /  1023.6hPa NNW 5.0mph /  8km/h 9.0mph /  14.5km/h 75% 0.00in /  0mm 526.00 W/m2
13:19 14.0 °F /  -10 °C 8.1 °F /  -13.3 °C 30.23in /  1023.6hPa NNW 7.0mph /  11.3km/h 9.0mph /  14.5km/h 77% 0.00in /  0mm 536.00 W/m2
13:24 14.0 °F /  -10 °C 8.4 °F /  -13.1 °C 30.23in /  1023.6hPa NNW 7.0mph /  11.3km/h 9.0mph /  14.5km/h 78% 0.00in /  0mm 550.00 W/m2
13:29 13.9 °F /  -10.1 °C 8.3 °F /  -13.2 °C 30.23in /  1023.6hPa NNW 7.0mph /  11.3km/h 10.0mph /  16.1km/h 78% 0.00in /  0mm 557.00 W/m2
13:34 14.2 °F /  -9.9 °C 8.9 °F /  -12.8 °C 30.23in /  1023.6hPa North 6.0mph /  9.7km/h 10.0mph /  16.1km/h 79% 0.00in /  0mm 566.00 W/m2
13:39 15.0 °F /  -9.4 °C 9.4 °F /  -12.6 °C 30.23in /  1023.6hPa NNW 7.0mph /  11.3km/h 10.0mph /  16.1km/h 78% 0.00in /  0mm 577.00 W/m2
13:44 15.2 °F /  -9.3 °C 9.3 °F /  -12.6 °C 30.23in /  1023.6hPa NNW 7.0mph /  11.3km/h 9.0mph /  14.5km/h 77% 0.00in /  0mm 585.00 W/m2
13:49 15.0 °F /  -9.4 °C 9.1 °F /  -12.7 °C 30.23in /  1023.6hPa NNW 7.0mph /  11.3km/h 9.0mph /  14.5km/h 77% 0.00in /  0mm 589.00 W/m2
13:54 14.4 °F /  -9.8 °C 8.5 °F /  -13.1 °C 30.23in /  1023.6hPa NNW 9.0mph /  14.5km/h 10.0mph /  16.1km/h 77% 0.00in /  0mm 589.00 W/m2
13:59 13.9 °F /  -10.1 °C 8.0 °F /  -13.3 °C 30.23in /  1023.6hPa NNW 7.0mph /  11.3km/h 10.0mph /  16.1km/h 77% 0.00in /  0mm 587.00 W/m2
14:04 13.6 °F /  -10.2 °C 8.0 °F /  -13.3 °C 30.23in /  1023.6hPa NW 10.0mph /  16.1km/h 11.0mph /  17.7km/h 78% 0.00in /  0mm 587.00 W/m2
14:09 13.0 °F /  -10.6 °C 7.7 °F /  -13.5 °C 30.23in /  1023.6hPa NW 8.0mph /  12.9km/h 12.0mph /  19.3km/h 79% 0.00in /  0mm 584.00 W/m2
14:14 12.8 °F /  -10.7 °C 7.5 °F /  -13.6 °C 30.24in /  1023.9hPa NNW 8.0mph /  12.9km/h 12.0mph /  19.3km/h 79% 0.00in /  0mm 578.00 W/m2
14:19 12.7 °F /  -10.7 °C 7.4 °F /  -13.7 °C 30.24in /  1023.9hPa NW 7.0mph /  11.3km/h 10.0mph /  16.1km/h 79% 0.00in /  0mm 573.00 W/m2
14:24 13.0 °F /  -10.6 °C 8.0 °F /  -13.3 °C 30.23in /  1023.6hPa NW 8.0mph /  12.9km/h 10.0mph /  16.1km/h 80% 0.00in /  0mm 568.00 W/m2
14:29 13.0 °F /  -10.6 °C 7.7 °F /  -13.5 °C 30.23in /  1023.6hPa WNW 7.0mph /  11.3km/h 11.0mph /  17.7km/h 79% 0.00in /  0mm 563.00 W/m2
14:34 12.8 °F /  -10.7 °C 7.5 °F /  -13.6 °C 30.24in /  1023.9hPa NW 7.0mph /  11.3km/h 11.0mph /  17.7km/h 79% 0.00in /  0mm 552.00 W/m2
14:39 12.7 °F /  -10.7 °C 7.4 °F /  -13.7 °C 30.24in /  1023.9hPa NW 8.0mph /  12.9km/h 10.0mph /  16.1km/h 79% 0.00in /  0mm 547.00 W/m2
14:44 13.0 °F /  -10.6 °C 7.7 °F /  -13.5 °C 30.24in /  1023.9hPa NNW 9.0mph /  14.5km/h 10.0mph /  16.1km/h 79% 0.00in /  0mm 541.00 W/m2
14:49 13.2 °F /  -10.4 °C 7.9 °F /  -13.4 °C 30.23in /  1023.6hPa NNW 8.0mph /  12.9km/h 10.0mph /  16.1km/h 79% 0.00in /  0mm 538.00 W/m2
14:54 12.9 °F /  -10.6 °C 7.3 °F /  -13.7 °C 30.25in /  1024.3hPa NW 7.0mph /  11.3km/h 12.0mph /  19.3km/h 78% 0.00in /  0mm 534.00 W/m2
14:59 12.8 °F /  -10.7 °C 7.5 °F /  -13.6 °C 30.25in /  1024.3hPa NW 7.0mph /  11.3km/h 12.0mph /  19.3km/h 79% 0.00in /  0mm 533.00 W/m2
15:04 12.9 °F /  -10.6 °C 7.3 °F /  -13.7 °C 30.25in /  1024.3hPa NNW 6.0mph /  9.7km/h 12.0mph /  19.3km/h 78% 0.00in /  0mm 527.00 W/m2
15:09 13.1 °F /  -10.5 °C 7.5 °F /  -13.6 °C 30.25in /  1024.3hPa NNW 9.0mph /  14.5km/h 10.0mph /  16.1km/h 78% 0.00in /  0mm 522.00 W/m2
15:14 13.1 °F /  -10.5 °C 7.5 °F /  -13.6 °C 30.25in /  1024.3hPa NNW 11.0mph /  17.7km/h 12.0mph /  19.3km/h 78% 0.00in /  0mm 515.00 W/m2
15:19 13.2 °F /  -10.4 °C 7.6 °F /  -13.6 °C 30.25in /  1024.3hPa NNW 9.0mph /  14.5km/h 13.0mph /  20.9km/h 78% 0.00in /  0mm 506.00 W/m2
15:24 13.3 °F /  -10.4 °C 7.7 °F /  -13.5 °C 30.26in /  1024.6hPa NNW 7.0mph /  11.3km/h 13.0mph /  20.9km/h 78% 0.00in /  0mm 497.00 W/m2
15:29 13.6 °F /  -10.2 °C 8.0 °F /  -13.3 °C 30.26in /  1024.6hPa NNW 8.0mph /  12.9km/h 11.0mph /  17.7km/h 78% 0.00in /  0mm 487.00 W/m2
15:34 13.6 °F /  -10.2 °C 7.7 °F /  -13.5 °C 30.26in /  1024.6hPa North 8.0mph /  12.9km/h 10.0mph /  16.1km/h 77% 0.00in /  0mm 476.00 W/m2
15:39 14.1 °F /  -9.9 °C 8.5 °F /  -13.1 °C 30.26in /  1024.6hPa North 10.0mph /  16.1km/h 11.0mph /  17.7km/h 78% 0.00in /  0mm 459.00 W/m2
15:44 14.5 °F /  -9.7 °C 8.3 °F /  -13.2 °C 30.26in /  1024.6hPa NNW 8.0mph /  12.9km/h 12.0mph /  19.3km/h 76% 0.00in /  0mm 448.00 W/m2
15:49 14.6 °F /  -9.7 °C 8.1 °F /  -13.3 °C 30.26in /  1024.6hPa NNW 7.0mph /  11.3km/h 12.0mph /  19.3km/h 75% 0.00in /  0mm 439.00 W/m2
15:54 14.6 °F /  -9.7 °C 8.1 °F /  -13.3 °C 30.26in /  1024.6hPa North 7.0mph /  11.3km/h 10.0mph /  16.1km/h 75% 0.00in /  0mm 427.00 W/m2
15:59 14.2 °F /  -9.9 °C 7.4 °F /  -13.7 °C 30.27in /  1024.9hPa NNW 7.0mph /  11.3km/h 10.0mph /  16.1km/h 74% 0.00in /  0mm 413.00 W/m2
16:04 13.4 °F /  -10.3 °C 7.0 °F /  -13.9 °C 30.27in /  1024.9hPa North 7.0mph /  11.3km/h 10.0mph /  16.1km/h 75% 0.00in /  0mm 399.00 W/m2
16:09 13.0 °F /  -10.6 °C 6.9 °F /  -13.9 °C 30.27in /  1024.9hPa NNW 7.0mph /  11.3km/h 10.0mph /  16.1km/h 76% 0.00in /  0mm 385.00 W/m2
16:14 12.7 °F /  -10.7 °C 6.6 °F /  -14.1 °C 30.28in /  1025.3hPa NNW 7.0mph /  11.3km/h 9.0mph /  14.5km/h 76% 0.00in /  0mm 373.00 W/m2
16:19 12.6 °F /  -10.8 °C 6.8 °F /  -14 °C 30.28in /  1025.3hPa NNW 7.0mph /  11.3km/h 9.0mph /  14.5km/h 77% 0.00in /  0mm 360.00 W/m2
16:24 12.8 °F /  -10.7 °C 6.9 °F /  -13.9 °C 30.28in /  1025.3hPa NNW 6.0mph /  9.7km/h 9.0mph /  14.5km/h 77% 0.00in /  0mm 345.00 W/m2
16:29 12.8 °F /  -10.7 °C 6.9 °F /  -13.9 °C 30.28in /  1025.3hPa NNW 5.0mph /  8km/h 8.0mph /  12.9km/h 77% 0.00in /  0mm 330.00 W/m2
16:34 13.1 °F /  -10.5 °C 7.2 °F /  -13.8 °C 30.28in /  1025.3hPa North 3.0mph /  4.8km/h 7.0mph /  11.3km/h 77% 0.00in /  0mm 315.00 W/m2
16:39 13.6 °F /  -10.2 °C 7.4 °F /  -13.7 °C 30.28in /  1025.3hPa NNW 4.0mph /  6.4km/h 6.0mph /  9.7km/h 76% 0.00in /  0mm 299.00 W/m2
16:44 13.1 °F /  -10.5 °C 6.7 °F /  -14.1 °C 30.29in /  1025.6hPa NNW 5.0mph /  8km/h 5.0mph /  8km/h 75% 0.00in /  0mm 279.00 W/m2
16:49 12.6 °F /  -10.8 °C 6.2 °F /  -14.3 °C 30.29in /  1025.6hPa NNW 5.0mph /  8km/h 6.0mph /  9.7km/h 75% 0.00in /  0mm 260.00 W/m2
16:54 12.3 °F /  -10.9 °C 6.2 °F /  -14.3 °C 30.29in /  1025.6hPa NNW 5.0mph /  8km/h 7.0mph /  11.3km/h 76% 0.00in /  0mm 241.00 W/m2
16:59 12.1 °F /  -11.1 °C 6.0 °F /  -14.4 °C 30.29in /  1025.6hPa NNW 5.0mph /  8km/h 7.0mph /  11.3km/h 76% 0.00in /  0mm 220.00 W/m2
17:04 12.1 °F /  -11.1 °C 6.3 °F /  -14.3 °C 30.30in /  1026hPa NNW 3.0mph /  4.8km/h 6.0mph /  9.7km/h 77% 0.00in /  0mm 199.00 W/m2
17:09 12.0 °F /  -11.1 °C 5.9 °F /  -14.5 °C 30.30in /  1026hPa NNW 4.0mph /  6.4km/h 6.0mph /  9.7km/h 76% 0.00in /  0mm 181.00 W/m2
17:14 11.7 °F /  -11.3 °C 5.6 °F /  -14.7 °C 30.30in /  1026hPa NNW 4.0mph /  6.4km/h 5.0mph /  8km/h 76% 0.00in /  0mm 160.00 W/m2
17:19 11.9 °F /  -11.2 °C 5.8 °F /  -14.6 °C 30.29in /  1025.6hPa NNW 4.0mph /  6.4km/h 5.0mph /  8km/h 76% 0.00in /  0mm 144.00 W/m2
17:24 12.3 °F /  -10.9 °C 6.2 °F /  -14.3 °C 30.30in /  1026hPa NNW 3.0mph /  4.8km/h 5.0mph /  8km/h 76% 0.00in /  0mm 118.00 W/m2
17:29 12.2 °F /  -11 °C 5.8 °F /  -14.6 °C 30.30in /  1026hPa NNW 1.0mph /  1.6km/h 5.0mph /  8km/h 75% 0.00in /  0mm 111.00 W/m2
17:34 12.3 °F /  -10.9 °C 5.9 °F /  -14.5 °C 30.30in /  1026hPa Calm   4.0mph /  6.4km/h 75% 0.00in /  0mm 102.00 W/m2
17:39 12.7 °F /  -10.7 °C 6.3 °F /  -14.3 °C 30.30in /  1026hPa Calm   2.0mph /  3.2km/h 75% 0.00in /  0mm 84.00 W/m2
17:44 13.1 °F /  -10.5 °C 6.7 °F /  -14.1 °C 30.30in /  1026hPa Calm   1.0mph /  1.6km/h 75% 0.00in /  0mm 70.00 W/m2
17:49 13.2 °F /  -10.4 °C 6.2 °F /  -14.3 °C 30.30in /  1026hPa North 3.0mph /  4.8km/h 4.0mph /  6.4km/h 73% 0.00in /  0mm 53.00 W/m2
17:54 12.9 °F /  -10.6 °C 5.6 °F /  -14.7 °C 30.31in /  1026.3hPa North 3.0mph /  4.8km/h 4.0mph /  6.4km/h 72% 0.00in /  0mm 33.00 W/m2
17:59 11.9 °F /  -11.2 °C 4.6 °F /  -15.2 °C 30.31in /  1026.3hPa NNE 4.0mph /  6.4km/h 5.0mph /  8km/h 72% 0.00in /  0mm 23.00 W/m2
18:04 11.0 °F /  -11.7 °C 3.7 °F /  -15.7 °C 30.31in /  1026.3hPa NNE 3.0mph /  4.8km/h 5.0mph /  8km/h 72% 0.00in /  0mm 19.00 W/m2
18:09 10.0 °F /  -12.2 °C 3.1 °F /  -16.1 °C 30.31in /  1026.3hPa NNE 4.0mph /  6.4km/h 5.0mph /  8km/h 73% 0.00in /  0mm 16.00 W/m2
18:14 9.2 °F /  -12.7 °C 2.9 °F /  -16.2 °C 30.31in /  1026.3hPa NNE 4.0mph /  6.4km/h 5.0mph /  8km/h 75% 0.00in /  0mm 12.00 W/m2
18:19 8.6 °F /  -13 °C 2.6 °F /  -16.3 °C 30.32in /  1026.6hPa NNE 3.0mph /  4.8km/h 5.0mph /  8km/h 76% 0.00in /  0mm 11.00 W/m2
18:24 8.1 °F /  -13.3 °C 2.4 °F /  -16.4 °C 30.32in /  1026.6hPa NNE 4.0mph /  6.4km/h 5.0mph /  8km/h 77% 0.00in /  0mm 7.00 W/m2
18:29 7.6 °F /  -13.6 °C 2.2 °F /  -16.6 °C 30.32in /  1026.6hPa North 4.0mph /  6.4km/h 5.0mph /  8km/h 78% 0.00in /  0mm 5.00 W/m2
18:34 7.1 °F /  -13.8 °C 1.7 °F /  -16.8 °C 30.33in /  1027hPa North 4.0mph /  6.4km/h 5.0mph /  8km/h 78% 0.00in /  0mm 0.00 W/m2
18:39 6.7 °F /  -14.1 °C 1.6 °F /  -16.9 °C 30.33in /  1027hPa NNE 4.0mph /  6.4km/h 5.0mph /  8km/h 79% 0.00in /  0mm 0.00 W/m2
18:44 6.3 °F /  -14.3 °C 1.4 °F /  -17 °C 30.33in /  1027hPa North 4.0mph /  6.4km/h 5.0mph /  8km/h 80% 0.00in /  0mm 0.00 W/m2
18:49 5.9 °F /  -14.5 °C 1.1 °F /  -17.2 °C 30.34in /  1027.3hPa North 3.0mph /  4.8km/h 5.0mph /  8km/h 80% 0.00in /  0mm 0.00 W/m2
18:54 5.8 °F /  -14.6 °C 1.5 °F /  -16.9 °C 30.34in /  1027.3hPa North 1.0mph /  1.6km/h 5.0mph /  8km/h 82% 0.00in /  0mm 0.00 W/m2
18:59 5.6 °F /  -14.7 °C 1.3 °F /  -17.1 °C 30.34in /  1027.3hPa North 2.0mph /  3.2km/h 4.0mph /  6.4km/h 82% 0.00in /  0mm 0.00 W/m2
19:04 5.4 °F /  -14.8 °C 1.1 °F /  -17.2 °C 30.34in /  1027.3hPa North 2.0mph /  3.2km/h 3.0mph /  4.8km/h 82% 0.00in /  0mm 0.00 W/m2
19:09 5.2 °F /  -14.9 °C 1.2 °F /  -17.1 °C 30.34in /  1027.3hPa North 4.0mph /  6.4km/h 4.0mph /  6.4km/h 83% 0.00in /  0mm 0.00 W/m2
19:14 5.1 °F /  -14.9 °C 1.1 °F /  -17.2 °C 30.34in /  1027.3hPa North 3.0mph /  4.8km/h 5.0mph /  8km/h 83% 0.00in /  0mm 0.00 W/m2
19:19 5.2 °F /  -14.9 °C 1.4 °F /  -17 °C 30.35in /  1027.7hPa North 2.0mph /  3.2km/h 5.0mph /  8km/h 84% 0.00in /  0mm 0.00 W/m2
19:24 5.3 °F /  -14.8 °C 1.8 °F /  -16.8 °C 30.35in /  1027.7hPa Calm   4.0mph /  6.4km/h 85% 0.00in /  0mm 0.00 W/m2
19:29 5.3 °F /  -14.8 °C 1.5 °F /  -16.9 °C 30.35in /  1027.7hPa Calm   3.0mph /  4.8km/h 84% 0.00in /  0mm 0.00 W/m2
19:34 5.2 °F /  -14.9 °C 1.4 °F /  -17 °C 30.35in /  1027.7hPa Calm   2.0mph /  3.2km/h 84% 0.00in /  0mm 0.00 W/m2
19:39 5.1 °F /  -14.9 °C 1.6 °F /  -16.9 °C 30.35in /  1027.7hPa North 3.0mph /  4.8km/h 3.0mph /  4.8km/h 85% 0.00in /  0mm 0.00 W/m2
19:44 5.2 °F /  -14.9 °C 1.7 °F /  -16.8 °C 30.36in /  1028hPa North 2.0mph /  3.2km/h 3.0mph /  4.8km/h 85% 0.00in /  0mm 0.00 W/m2
19:49 5.3 °F /  -14.8 °C 2.0 °F /  -16.7 °C 30.36in /  1028hPa North 1.0mph /  1.6km/h 3.0mph /  4.8km/h 86% 0.00in /  0mm 0.00 W/m2
19:54 5.4 °F /  -14.8 °C 2.1 °F /  -16.6 °C 30.36in /  1028hPa North 2.0mph /  3.2km/h 3.0mph /  4.8km/h 86% 0.00in /  0mm 0.00 W/m2
19:59 5.5 °F /  -14.7 °C 2.2 °F /  -16.6 °C 30.36in /  1028hPa North 2.0mph /  3.2km/h 2.0mph /  3.2km/h 86% 0.00in /  0mm 0.00 W/m2
20:04 5.6 °F /  -14.7 °C 2.3 °F /  -16.5 °C 30.36in /  1028hPa North 1.0mph /  1.6km/h 2.0mph /  3.2km/h 86% 0.00in /  0mm 0.00 W/m2
20:09 5.5 °F /  -14.7 °C 2.2 °F /  -16.6 °C 30.37in /  1028.3hPa North 1.0mph /  1.6km/h 2.0mph /  3.2km/h 86% 0.00in /  0mm 0.00 W/m2
20:14 5.8 °F /  -14.6 °C 2.5 °F /  -16.4 °C 30.37in /  1028.3hPa North 1.0mph /  1.6km/h 2.0mph /  3.2km/h 86% 0.00in /  0mm 0.00 W/m2
20:19 5.8 °F /  -14.6 °C 2.5 °F /  -16.4 °C 30.37in /  1028.3hPa North 2.0mph /  3.2km/h 3.0mph /  4.8km/h 86% 0.00in /  0mm 0.00 W/m2
20:24 5.7 °F /  -14.6 °C 2.4 °F /  -16.4 °C 30.37in /  1028.3hPa NW 3.0mph /  4.8km/h 3.0mph /  4.8km/h 86% 0.00in /  0mm 0.00 W/m2
20:29 5.5 °F /  -14.7 °C 2.2 °F /  -16.6 °C 30.37in /  1028.3hPa NW 4.0mph /  6.4km/h 4.0mph /  6.4km/h 86% 0.00in /  0mm 0.00 W/m2
20:34 5.1 °F /  -14.9 °C 1.6 °F /  -16.9 °C 30.37in /  1028.3hPa NW 5.0mph /  8km/h 7.0mph /  11.3km/h 85% 0.00in /  0mm 0.00 W/m2
20:39 5.1 °F /  -14.9 °C 1.8 °F /  -16.8 °C 30.37in /  1028.3hPa NW 6.0mph /  9.7km/h 8.0mph /  12.9km/h 86% 0.00in /  0mm 0.00 W/m2
20:44 5.5 °F /  -14.7 °C 2.5 °F /  -16.4 °C 30.38in /  1028.7hPa NW 6.0mph /  9.7km/h 9.0mph /  14.5km/h 87% 0.00in /  0mm 0.00 W/m2
20:49 5.2 °F /  -14.9 °C 1.9 °F /  -16.7 °C 30.37in /  1028.3hPa NW 5.0mph /  8km/h 9.0mph /  14.5km/h 86% 0.00in /  0mm 0.00 W/m2
20:54 4.6 °F /  -15.2 °C 1.1 °F /  -17.2 °C 30.38in /  1028.7hPa WNW 4.0mph /  6.4km/h 7.0mph /  11.3km/h 85% 0.00in /  0mm 0.00 W/m2
20:59 4.5 °F /  -15.3 °C 1.0 °F /  -17.2 °C 30.38in /  1028.7hPa WNW 3.0mph /  4.8km/h 5.0mph /  8km/h 85% 0.00in /  0mm 0.00 W/m2
21:04 4.3 °F /  -15.4 °C 1.0 °F /  -17.2 °C 30.38in /  1028.7hPa WNW 2.0mph /  3.2km/h 5.0mph /  8km/h 86% 0.00in /  0mm 0.00 W/m2
21:09 4.0 °F /  -15.6 °C 0.5 °F /  -17.5 °C 30.39in /  1029hPa WNW 2.0mph /  3.2km/h 4.0mph /  6.4km/h 85% 0.00in /  0mm 0.00 W/m2
21:14 3.9 °F /  -15.6 °C 0.4 °F /  -17.6 °C 30.39in /  1029hPa WNW 1.0mph /  1.6km/h 2.0mph /  3.2km/h 85% 0.00in /  0mm 0.00 W/m2
21:19 4.0 °F /  -15.6 °C 0.7 °F /  -17.4 °C 30.39in /  1029hPa WNW 2.0mph /  3.2km/h 3.0mph /  4.8km/h 86% 0.00in /  0mm 0.00 W/m2
21:24 4.0 °F /  -15.6 °C 0.7 °F /  -17.4 °C 30.39in /  1029hPa WNW 3.0mph /  4.8km/h 4.0mph /  6.4km/h 86% 0.00in /  0mm 0.00 W/m2
21:29 3.9 °F /  -15.6 °C 0.6 °F /  -17.4 °C 30.39in /  1029hPa WNW 4.0mph /  6.4km/h 5.0mph /  8km/h 86% 0.00in /  0mm 0.00 W/m2
21:34 4.0 °F /  -15.6 °C 0.7 °F /  -17.4 °C 30.39in /  1029hPa WNW 6.0mph /  9.7km/h 6.0mph /  9.7km/h 86% 0.00in /  0mm 0.00 W/m2
21:39 4.2 °F /  -15.4 °C 1.2 °F /  -17.1 °C 30.39in /  1029hPa WNW 6.0mph /  9.7km/h 7.0mph /  11.3km/h 87% 0.00in /  0mm 0.00 W/m2
21:44 4.5 °F /  -15.3 °C 1.5 °F /  -16.9 °C 30.40in /  1029.3hPa NW 6.0mph /  9.7km/h 9.0mph /  14.5km/h 87% 0.00in /  0mm 0.00 W/m2
21:49 5.1 °F /  -14.9 °C 1.8 °F /  -16.8 °C 30.40in /  1029.3hPa NW 5.0mph /  8km/h 9.0mph /  14.5km/h 86% 0.00in /  0mm 0.00 W/m2
21:54 5.1 °F /  -14.9 °C 1.3 °F /  -17.1 °C 30.40in /  1029.3hPa NNW 8.0mph /  12.9km/h 10.0mph /  16.1km/h 84% 0.00in /  0mm 0.00 W/m2
21:59 4.7 °F /  -15.2 °C 0.7 °F /  -17.4 °C 30.40in /  1029.3hPa NNW 7.0mph /  11.3km/h 10.0mph /  16.1km/h 83% 0.00in /  0mm 0.00 W/m2
22:04 4.1 °F /  -15.5 °C -0.4 °F /  -18 °C 30.40in /  1029.3hPa NNW 7.0mph /  11.3km/h 8.0mph /  12.9km/h 81% 0.00in /  0mm 0.00 W/m2
22:09 3.6 °F /  -15.8 °C -0.9 °F /  -18.3 °C 30.40in /  1029.3hPa NNW 6.0mph /  9.7km/h 8.0mph /  12.9km/h 81% 0.00in /  0mm 0.00 W/m2
22:14 3.2 °F /  -16 °C -1.6 °F /  -18.7 °C 30.40in /  1029.3hPa NNW 6.0mph /  9.7km/h 8.0mph /  12.9km/h 80% 0.00in /  0mm 0.00 W/m2
22:19 2.8 °F /  -16.2 °C -2.0 °F /  -18.9 °C 30.40in /  1029.3hPa NNW 7.0mph /  11.3km/h 8.0mph /  12.9km/h 80% 0.00in /  0mm 0.00 W/m2
22:24 2.4 °F /  -16.4 °C -2.6 °F /  -19.2 °C 30.41in /  1029.7hPa NW 8.0mph /  12.9km/h 9.0mph /  14.5km/h 79% 0.00in /  0mm 0.00 W/m2
22:29 2.5 °F /  -16.4 °C -2.3 °F /  -19.1 °C 30.41in /  1029.7hPa NW 7.0mph /  11.3km/h 10.0mph /  16.1km/h 80% 0.00in /  0mm 0.00 W/m2
22:34 3.0 °F /  -16.1 °C -1.8 °F /  -18.8 °C 30.40in /  1029.3hPa NW 8.0mph /  12.9km/h 10.0mph /  16.1km/h 80% 0.00in /  0mm 0.00 W/m2
22:39 3.1 °F /  -16.1 °C -1.9 °F /  -18.8 °C 30.40in /  1029.3hPa NW 8.0mph /  12.9km/h 10.0mph /  16.1km/h 79% 0.00in /  0mm 0.00 W/m2
22:44 3.0 °F /  -16.1 °C -2.0 °F /  -18.9 °C 30.40in /  1029.3hPa NW 6.0mph /  9.7km/h 11.0mph /  17.7km/h 79% 0.00in /  0mm 0.00 W/m2
22:49 3.2 °F /  -16 °C -1.8 °F /  -18.8 °C 30.40in /  1029.3hPa NW 5.0mph /  8km/h 11.0mph /  17.7km/h 79% 0.00in /  0mm 0.00 W/m2
22:54 3.1 °F /  -16.1 °C -2.2 °F /  -19 °C 30.40in /  1029.3hPa NW 8.0mph /  12.9km/h 11.0mph /  17.7km/h 78% 0.00in /  0mm 0.00 W/m2
22:59 2.9 °F /  -16.2 °C -2.4 °F /  -19.1 °C 30.40in /  1029.3hPa NW 6.0mph /  9.7km/h 10.0mph /  16.1km/h 78% 0.00in /  0mm 0.00 W/m2
23:04 3.1 °F /  -16.1 °C -1.9 °F /  -18.8 °C 30.40in /  1029.3hPa NW 9.0mph /  14.5km/h 12.0mph /  19.3km/h 79% 0.00in /  0mm 0.00 W/m2
23:09 3.1 °F /  -16.1 °C -2.2 °F /  -19 °C 30.40in /  1029.3hPa NW 10.0mph /  16.1km/h 13.0mph /  20.9km/h 78% 0.00in /  0mm 0.00 W/m2
23:14 3.0 °F /  -16.1 °C -2.3 °F /  -19.1 °C 30.40in /  1029.3hPa NNW 10.0mph /  16.1km/h 13.0mph /  20.9km/h 78% 0.00in /  0mm 0.00 W/m2
23:19 3.0 °F /  -16.1 °C -2.3 °F /  -19.1 °C 30.40in /  1029.3hPa NW 11.0mph /  17.7km/h 13.0mph /  20.9km/h 78% 0.00in /  0mm 0.00 W/m2
23:24 2.7 °F /  -16.3 °C -2.6 °F /  -19.2 °C 30.40in /  1029.3hPa NW 12.0mph /  19.3km/h 14.0mph /  22.5km/h 78% 0.00in /  0mm 0.00 W/m2
23:29 2.6 °F /  -16.3 °C -2.4 °F /  -19.1 °C 30.41in /  1029.7hPa NW 8.0mph /  12.9km/h 14.0mph /  22.5km/h 79% 0.00in /  0mm 0.00 W/m2
23:34 2.5 °F /  -16.4 °C -2.5 °F /  -19.2 °C 30.41in /  1029.7hPa NW 7.0mph /  11.3km/h 14.0mph /  22.5km/h 79% 0.00in /  0mm 0.00 W/m2
23:39 2.4 °F /  -16.4 °C -2.6 °F /  -19.2 °C 30.41in /  1029.7hPa NW 6.0mph /  9.7km/h 13.0mph /  20.9km/h 79% 0.00in /  0mm 0.00 W/m2
23:44 2.4 °F /  -16.4 °C -2.6 °F /  -19.2 °C 30.42in /  1030hPa WNW 9.0mph /  14.5km/h 12.0mph /  19.3km/h 79% 0.00in /  0mm 0.00 W/m2
23:49 2.3 °F /  -16.5 °C -2.7 °F /  -19.3 °C 30.42in /  1030hPa NW 11.0mph /  17.7km/h 12.0mph /  19.3km/h 79% 0.00in /  0mm 0.00 W/m2
23:54 2.2 °F /  -16.6 °C -2.6 °F /  -19.2 °C 30.42in /  1030hPa NW 6.0mph /  9.7km/h 12.0mph /  19.3km/h 80% 0.00in /  0mm 0.00 W/m2
23:59 2.1 °F /  -16.6 °C -2.7 °F /  -19.3 °C 30.42in /  1030hPa NW 10.0mph /  16.1km/h 12.0mph /  19.3km/h 80% 0.00in /  0mm 0.00 W/m2
Bismarck, North Dakota, USA
Compliments of Weather Underground - 4 mb